sensor_id;sensor_type;location;lat;lon;timestamp;P1;durP1;ratioP1;P2;durP2;ratioP2
64498;SDS011;51087;55.718;21.122;2023-03-23T00:00:04;40.17;;;18.90;;
64498;SDS011;51087;55.718;21.122;2023-03-23T00:02:31;49.08;;;21.42;;
64498;SDS011;51087;55.718;21.122;2023-03-23T00:05:02;50.13;;;22.77;;
64498;SDS011;51087;55.718;21.122;2023-03-23T00:07:29;51.10;;;24.75;;
64498;SDS011;51087;55.718;21.122;2023-03-23T00:09:54;50.28;;;22.17;;
64498;SDS011;51087;55.718;21.122;2023-03-23T00:12:21;37.65;;;18.73;;
64498;SDS011;51087;55.718;21.122;2023-03-23T00:14:53;49.00;;;20.92;;
64498;SDS011;51087;55.718;21.122;2023-03-23T00:17:19;47.97;;;21.25;;
64498;SDS011;51087;55.718;21.122;2023-03-23T00:19:45;43.45;;;21.52;;
64498;SDS011;51087;55.718;21.122;2023-03-23T00:22:11;50.05;;;23.23;;
64498;SDS011;51087;55.718;21.122;2023-03-23T00:24:41;55.38;;;22.52;;
64498;SDS011;51087;55.718;21.122;2023-03-23T00:27:08;49.15;;;20.65;;
64498;SDS011;51087;55.718;21.122;2023-03-23T00:29:34;45.85;;;22.38;;
64498;SDS011;51087;55.718;21.122;2023-03-23T00:31:59;32.80;;;18.45;;
64498;SDS011;51087;55.718;21.122;2023-03-23T00:34:26;43.88;;;19.65;;
64498;SDS011;51087;55.718;21.122;2023-03-23T00:36:57;40.60;;;17.60;;
64498;SDS011;51087;55.718;21.122;2023-03-23T00:39:25;34.22;;;14.63;;
64498;SDS011;51087;55.718;21.122;2023-03-23T00:41:52;55.30;;;23.02;;
64498;SDS011;51087;55.718;21.122;2023-03-23T00:44:25;54.80;;;24.25;;
64498;SDS011;51087;55.718;21.122;2023-03-23T00:46:55;50.45;;;20.35;;
64498;SDS011;51087;55.718;21.122;2023-03-23T00:49:21;52.97;;;22.17;;
64498;SDS011;51087;55.718;21.122;2023-03-23T00:51:50;42.38;;;19.38;;
64498;SDS011;51087;55.718;21.122;2023-03-23T00:54:16;40.08;;;19.75;;
64498;SDS011;51087;55.718;21.122;2023-03-23T00:56:41;50.88;;;25.38;;
64498;SDS011;51087;55.718;21.122;2023-03-23T00:59:07;46.55;;;22.88;;
64498;SDS011;51087;55.718;21.122;2023-03-23T01:01:33;58.17;;;22.70;;
64498;SDS011;51087;55.718;21.122;2023-03-23T01:03:59;59.22;;;26.52;;
64498;SDS011;51087;55.718;21.122;2023-03-23T01:06:26;36.85;;;17.67;;
64498;SDS011;51087;55.718;21.122;2023-03-23T01:09:00;51.58;;;24.70;;
64498;SDS011;51087;55.718;21.122;2023-03-23T01:11:28;42.28;;;23.35;;
64498;SDS011;51087;55.718;21.122;2023-03-23T01:13:53;40.65;;;18.50;;
64498;SDS011;51087;55.718;21.122;2023-03-23T01:16:19;51.65;;;22.42;;
64498;SDS011;51087;55.718;21.122;2023-03-23T01:18:45;60.90;;;26.38;;
64498;SDS011;51087;55.718;21.122;2023-03-23T01:21:12;56.03;;;23.92;;
64498;SDS011;51087;55.718;21.122;2023-03-23T01:23:40;51.05;;;23.80;;
64498;SDS011;51087;55.718;21.122;2023-03-23T01:28:33;42.22;;;19.83;;
64498;SDS011;51087;55.718;21.122;2023-03-23T01:31:03;58.85;;;23.63;;
64498;SDS011;51087;55.718;21.122;2023-03-23T01:33:31;30.15;;;15.48;;
64498;SDS011;51087;55.718;21.122;2023-03-23T01:35:57;63.72;;;27.52;;
64498;SDS011;51087;55.718;21.122;2023-03-23T01:38:23;55.47;;;23.95;;
64498;SDS011;51087;55.718;21.122;2023-03-23T01:40:49;40.50;;;19.42;;
64498;SDS011;51087;55.718;21.122;2023-03-23T01:43:15;47.80;;;21.58;;
64498;SDS011;51087;55.718;21.122;2023-03-23T01:45:41;52.15;;;25.65;;
64498;SDS011;51087;55.718;21.122;2023-03-23T01:48:09;38.35;;;21.00;;
64498;SDS011;51087;55.718;21.122;2023-03-23T01:50:37;37.25;;;18.73;;
64498;SDS011;51087;55.718;21.122;2023-03-23T01:53:09;48.72;;;24.83;;
64498;SDS011;51087;55.718;21.122;2023-03-23T01:55:36;50.60;;;24.65;;
64498;SDS011;51087;55.718;21.122;2023-03-23T01:58:05;37.25;;;16.58;;
64498;SDS011;51087;55.718;21.122;2023-03-23T02:00:31;48.78;;;22.05;;
64498;SDS011;51087;55.718;21.122;2023-03-23T02:02:58;29.45;;;14.82;;
64498;SDS011;51087;55.718;21.122;2023-03-23T02:05:32;53.20;;;25.33;;
64498;SDS011;51087;55.718;21.122;2023-03-23T02:08:01;52.10;;;22.20;;
64498;SDS011;51087;55.718;21.122;2023-03-23T02:10:30;51.45;;;21.67;;
64498;SDS011;51087;55.718;21.122;2023-03-23T02:13:00;55.63;;;26.52;;
64498;SDS011;51087;55.718;21.122;2023-03-23T02:15:30;47.92;;;24.88;;
64498;SDS011;51087;55.718;21.122;2023-03-23T02:34:26;31.02;;;16.33;;
64498;SDS011;51087;55.718;21.122;2023-03-23T02:41:54;30.98;;;18.38;;
64498;SDS011;51087;55.718;21.122;2023-03-23T02:44:24;51.78;;;22.65;;
64498;SDS011;51087;55.718;21.122;2023-03-23T02:46:54;43.33;;;21.52;;
64498;SDS011;51087;55.718;21.122;2023-03-23T02:49:22;33.08;;;16.15;;
64498;SDS011;51087;55.718;21.122;2023-03-23T02:51:50;46.70;;;24.42;;
64498;SDS011;51087;55.718;21.122;2023-03-23T02:54:17;40.40;;;20.15;;
64498;SDS011;51087;55.718;21.122;2023-03-23T02:56:45;44.22;;;20.73;;
64498;SDS011;51087;55.718;21.122;2023-03-23T02:59:11;47.20;;;23.92;;
64498;SDS011;51087;55.718;21.122;2023-03-23T03:04:11;43.40;;;21.20;;
64498;SDS011;51087;55.718;21.122;2023-03-23T03:11:39;41.92;;;20.52;;
64498;SDS011;51087;55.718;21.122;2023-03-23T03:14:59;43.03;;;20.95;;
64498;SDS011;51087;55.718;21.122;2023-03-23T03:19:45;34.17;;;16.00;;
64498;SDS011;51087;55.718;21.122;2023-03-23T03:22:14;24.20;;;13.05;;
64498;SDS011;51087;55.718;21.122;2023-03-23T03:24:41;37.75;;;17.88;;
64498;SDS011;51087;55.718;21.122;2023-03-23T03:27:15;25.48;;;13.48;;
64498;SDS011;51087;55.718;21.122;2023-03-23T03:29:43;26.73;;;14.15;;
64498;SDS011;51087;55.718;21.122;2023-03-23T03:32:23;21.83;;;12.23;;
64498;SDS011;51087;55.718;21.122;2023-03-23T03:34:55;28.67;;;12.57;;
64498;SDS011;51087;55.718;21.122;2023-03-23T03:37:23;34.30;;;16.10;;
64498;SDS011;51087;55.718;21.122;2023-03-23T03:39:49;29.65;;;14.65;;
64498;SDS011;51087;55.718;21.122;2023-03-23T03:42:15;32.83;;;18.23;;
64498;SDS011;51087;55.718;21.122;2023-03-23T03:44:41;40.67;;;20.40;;
64498;SDS011;51087;55.718;21.122;2023-03-23T03:47:06;23.05;;;12.60;;
64498;SDS011;51087;55.718;21.122;2023-03-23T03:49:32;38.72;;;21.48;;
64498;SDS011;51087;55.718;21.122;2023-03-23T03:51:57;36.40;;;19.63;;
64498;SDS011;51087;55.718;21.122;2023-03-23T03:54:22;35.85;;;18.33;;
64498;SDS011;51087;55.718;21.122;2023-03-23T03:56:48;39.78;;;18.75;;
64498;SDS011;51087;55.718;21.122;2023-03-23T03:59:16;41.17;;;20.80;;
64498;SDS011;51087;55.718;21.122;2023-03-23T04:01:42;31.88;;;16.25;;
64498;SDS011;51087;55.718;21.122;2023-03-23T04:04:07;38.53;;;18.50;;
64498;SDS011;51087;55.718;21.122;2023-03-23T04:06:33;41.05;;;22.90;;
64498;SDS011;51087;55.718;21.122;2023-03-23T04:09:02;43.20;;;21.65;;
64498;SDS011;51087;55.718;21.122;2023-03-23T04:11:30;45.75;;;24.02;;
64498;SDS011;51087;55.718;21.122;2023-03-23T04:13:56;49.47;;;23.50;;
64498;SDS011;51087;55.718;21.122;2023-03-23T04:16:21;45.47;;;23.58;;
64498;SDS011;51087;55.718;21.122;2023-03-23T04:18:47;38.47;;;18.60;;
64498;SDS011;51087;55.718;21.122;2023-03-23T04:21:13;42.70;;;20.55;;
64498;SDS011;51087;55.718;21.122;2023-03-23T04:23:39;26.58;;;14.15;;
64498;SDS011;51087;55.718;21.122;2023-03-23T04:26:05;30.45;;;16.08;;
64498;SDS011;51087;55.718;21.122;2023-03-23T04:28:30;43.60;;;21.75;;
64498;SDS011;51087;55.718;21.122;2023-03-23T04:30:58;35.08;;;17.48;;
64498;SDS011;51087;55.718;21.122;2023-03-23T04:33:27;33.28;;;16.65;;
64498;SDS011;51087;55.718;21.122;2023-03-23T04:35:54;37.72;;;20.55;;
64498;SDS011;51087;55.718;21.122;2023-03-23T04:38:21;47.70;;;23.63;;
64498;SDS011;51087;55.718;21.122;2023-03-23T04:40:49;49.08;;;23.88;;
64498;SDS011;51087;55.718;21.122;2023-03-23T04:43:17;25.20;;;12.95;;
64498;SDS011;51087;55.718;21.122;2023-03-23T04:45:47;33.05;;;19.63;;
64498;SDS011;51087;55.718;21.122;2023-03-23T04:48:17;27.08;;;13.43;;
64498;SDS011;51087;55.718;21.122;2023-03-23T04:50:44;42.25;;;22.08;;
64498;SDS011;51087;55.718;21.122;2023-03-23T04:53:10;43.63;;;20.02;;
64498;SDS011;51087;55.718;21.122;2023-03-23T04:55:35;40.03;;;21.42;;
64498;SDS011;51087;55.718;21.122;2023-03-23T04:58:05;43.85;;;23.50;;
64498;SDS011;51087;55.718;21.122;2023-03-23T05:00:32;28.77;;;16.42;;
64498;SDS011;51087;55.718;21.122;2023-03-23T05:02:58;35.88;;;17.55;;
64498;SDS011;51087;55.718;21.122;2023-03-23T05:05:25;33.05;;;17.65;;
64498;SDS011;51087;55.718;21.122;2023-03-23T05:07:52;41.63;;;21.52;;
64498;SDS011;51087;55.718;21.122;2023-03-23T05:10:18;36.63;;;18.45;;
64498;SDS011;51087;55.718;21.122;2023-03-23T05:12:44;26.75;;;14.63;;
64498;SDS011;51087;55.718;21.122;2023-03-23T05:15:11;36.85;;;17.45;;
64498;SDS011;51087;55.718;21.122;2023-03-23T05:17:38;47.42;;;23.25;;
64498;SDS011;51087;55.718;21.122;2023-03-23T05:20:05;39.60;;;18.17;;
64498;SDS011;51087;55.718;21.122;2023-03-23T05:22:34;37.85;;;20.20;;
64498;SDS011;51087;55.718;21.122;2023-03-23T05:25:01;26.25;;;14.05;;
64498;SDS011;51087;55.718;21.122;2023-03-23T05:27:30;39.40;;;19.00;;
64498;SDS011;51087;55.718;21.122;2023-03-23T05:29:56;32.72;;;17.63;;
64498;SDS011;51087;55.718;21.122;2023-03-23T05:32:23;38.10;;;20.02;;
64498;SDS011;51087;55.718;21.122;2023-03-23T05:34:57;24.00;;;14.43;;
64498;SDS011;51087;55.718;21.122;2023-03-23T05:37:27;45.00;;;21.52;;
64498;SDS011;51087;55.718;21.122;2023-03-23T05:39:59;28.50;;;16.15;;
64498;SDS011;51087;55.718;21.122;2023-03-23T05:42:26;33.35;;;17.23;;
64498;SDS011;51087;55.718;21.122;2023-03-23T05:44:52;28.92;;;16.25;;
64498;SDS011;51087;55.718;21.122;2023-03-23T05:47:18;41.08;;;21.77;;
64498;SDS011;51087;55.718;21.122;2023-03-23T05:49:43;26.02;;;14.80;;
64498;SDS011;51087;55.718;21.122;2023-03-23T05:52:09;23.85;;;13.05;;
64498;SDS011;51087;55.718;21.122;2023-03-23T05:54:35;28.80;;;16.60;;
64498;SDS011;51087;55.718;21.122;2023-03-23T05:57:01;28.17;;;16.73;;
64498;SDS011;51087;55.718;21.122;2023-03-23T05:59:27;30.40;;;16.13;;
64498;SDS011;51087;55.718;21.122;2023-03-23T06:01:52;40.08;;;20.70;;
64498;SDS011;51087;55.718;21.122;2023-03-23T06:04:19;37.78;;;19.42;;
64498;SDS011;51087;55.718;21.122;2023-03-23T06:06:44;37.92;;;18.02;;
64498;SDS011;51087;55.718;21.122;2023-03-23T06:09:10;38.22;;;19.90;;
64498;SDS011;51087;55.718;21.122;2023-03-23T06:11:36;38.40;;;20.80;;
64498;SDS011;51087;55.718;21.122;2023-03-23T06:14:01;37.03;;;21.10;;
64498;SDS011;51087;55.718;21.122;2023-03-23T06:16:28;40.28;;;23.20;;
64498;SDS011;51087;55.718;21.122;2023-03-23T06:18:54;37.47;;;21.38;;
64498;SDS011;51087;55.718;21.122;2023-03-23T06:21:19;37.45;;;20.98;;
64498;SDS011;51087;55.718;21.122;2023-03-23T06:23:46;32.00;;;20.05;;
64498;SDS011;51087;55.718;21.122;2023-03-23T06:26:13;42.83;;;27.48;;
64498;SDS011;51087;55.718;21.122;2023-03-23T06:28:41;34.97;;;19.60;;
64498;SDS011;51087;55.718;21.122;2023-03-23T06:31:07;32.33;;;17.88;;
64498;SDS011;51087;55.718;21.122;2023-03-23T06:33:33;39.00;;;23.45;;
64498;SDS011;51087;55.718;21.122;2023-03-23T06:36:00;21.65;;;11.60;;
64498;SDS011;51087;55.718;21.122;2023-03-23T06:38:27;31.38;;;18.25;;
64498;SDS011;51087;55.718;21.122;2023-03-23T06:40:52;26.88;;;15.52;;
64498;SDS011;51087;55.718;21.122;2023-03-23T06:43:19;28.15;;;15.48;;
64498;SDS011;51087;55.718;21.122;2023-03-23T06:45:45;22.77;;;14.07;;
64498;SDS011;51087;55.718;21.122;2023-03-23T06:48:10;30.15;;;17.25;;
64498;SDS011;51087;55.718;21.122;2023-03-23T06:50:36;30.38;;;16.60;;
64498;SDS011;51087;55.718;21.122;2023-03-23T06:53:01;34.20;;;18.88;;
64498;SDS011;51087;55.718;21.122;2023-03-23T06:55:26;24.25;;;13.75;;
64498;SDS011;51087;55.718;21.122;2023-03-23T06:57:52;30.13;;;17.23;;
64498;SDS011;51087;55.718;21.122;2023-03-23T07:00:17;27.33;;;15.63;;
64498;SDS011;51087;55.718;21.122;2023-03-23T07:02:43;26.65;;;13.77;;
64498;SDS011;51087;55.718;21.122;2023-03-23T07:05:09;33.95;;;18.80;;
64498;SDS011;51087;55.718;21.122;2023-03-23T07:07:36;24.25;;;13.80;;
64498;SDS011;51087;55.718;21.122;2023-03-23T07:10:03;23.02;;;12.30;;
64498;SDS011;51087;55.718;21.122;2023-03-23T07:12:29;20.85;;;12.10;;
64498;SDS011;51087;55.718;21.122;2023-03-23T07:14:55;25.40;;;14.88;;
64498;SDS011;51087;55.718;21.122;2023-03-23T07:17:20;30.33;;;18.38;;
64498;SDS011;51087;55.718;21.122;2023-03-23T07:19:46;32.25;;;17.35;;
64498;SDS011;51087;55.718;21.122;2023-03-23T07:22:12;19.00;;;12.52;;
64498;SDS011;51087;55.718;21.122;2023-03-23T07:24:37;27.23;;;16.08;;
64498;SDS011;51087;55.718;21.122;2023-03-23T07:27:03;22.90;;;13.38;;
64498;SDS011;51087;55.718;21.122;2023-03-23T07:29:28;32.97;;;16.63;;
64498;SDS011;51087;55.718;21.122;2023-03-23T07:31:54;29.00;;;16.02;;
64498;SDS011;51087;55.718;21.122;2023-03-23T07:34:22;30.70;;;17.30;;
64498;SDS011;51087;55.718;21.122;2023-03-23T07:36:48;26.88;;;16.27;;
64498;SDS011;51087;55.718;21.122;2023-03-23T07:39:13;21.45;;;11.00;;
64498;SDS011;51087;55.718;21.122;2023-03-23T07:41:39;35.40;;;17.67;;
64498;SDS011;51087;55.718;21.122;2023-03-23T07:44:04;34.42;;;19.38;;
64498;SDS011;51087;55.718;21.122;2023-03-23T07:46:30;25.15;;;13.82;;
64498;SDS011;51087;55.718;21.122;2023-03-23T07:48:56;30.17;;;18.17;;
64498;SDS011;51087;55.718;21.122;2023-03-23T07:51:22;27.17;;;15.65;;
64498;SDS011;51087;55.718;21.122;2023-03-23T07:53:48;28.13;;;16.08;;
64498;SDS011;51087;55.718;21.122;2023-03-23T07:56:14;31.52;;;17.10;;
64498;SDS011;51087;55.718;21.122;2023-03-23T07:58:44;30.25;;;17.02;;
64498;SDS011;51087;55.718;21.122;2023-03-23T08:01:10;35.55;;;16.73;;
64498;SDS011;51087;55.718;21.122;2023-03-23T08:03:35;43.90;;;21.23;;
64498;SDS011;51087;55.718;21.122;2023-03-23T08:06:02;35.28;;;20.27;;
64498;SDS011;51087;55.718;21.122;2023-03-23T08:08:28;40.60;;;22.75;;
64498;SDS011;51087;55.718;21.122;2023-03-23T08:10:53;25.40;;;14.32;;
64498;SDS011;51087;55.718;21.122;2023-03-23T08:13:19;44.05;;;22.77;;
64498;SDS011;51087;55.718;21.122;2023-03-23T08:15:44;35.85;;;19.08;;
64498;SDS011;51087;55.718;21.122;2023-03-23T08:18:10;32.13;;;18.02;;
64498;SDS011;51087;55.718;21.122;2023-03-23T08:20:36;29.75;;;16.08;;
64498;SDS011;51087;55.718;21.122;2023-03-23T08:23:02;43.40;;;22.38;;
64498;SDS011;51087;55.718;21.122;2023-03-23T08:25:28;30.08;;;16.55;;
64498;SDS011;51087;55.718;21.122;2023-03-23T08:27:56;38.20;;;20.30;;
64498;SDS011;51087;55.718;21.122;2023-03-23T08:30:22;28.80;;;16.27;;
64498;SDS011;51087;55.718;21.122;2023-03-23T08:32:49;41.67;;;22.00;;
64498;SDS011;51087;55.718;21.122;2023-03-23T08:35:16;38.10;;;21.80;;
64498;SDS011;51087;55.718;21.122;2023-03-23T08:37:42;36.40;;;20.75;;
64498;SDS011;51087;55.718;21.122;2023-03-23T08:40:09;39.97;;;21.02;;
64498;SDS011;51087;55.718;21.122;2023-03-23T08:42:38;23.13;;;13.95;;
64498;SDS011;51087;55.718;21.122;2023-03-23T08:45:06;38.60;;;21.48;;
64498;SDS011;51087;55.718;21.122;2023-03-23T08:47:33;40.00;;;21.67;;
64498;SDS011;51087;55.718;21.122;2023-03-23T08:50:00;40.05;;;15.52;;
64498;SDS011;51087;55.718;21.122;2023-03-23T08:52:27;24.63;;;12.68;;
64498;SDS011;51087;55.718;21.122;2023-03-23T08:54:53;34.38;;;17.60;;
64498;SDS011;51087;55.718;21.122;2023-03-23T08:57:19;31.77;;;16.65;;
64498;SDS011;51087;55.718;21.122;2023-03-23T08:59:44;21.98;;;12.40;;
64498;SDS011;51087;55.718;21.122;2023-03-23T09:02:10;36.97;;;20.52;;
64498;SDS011;51087;55.718;21.122;2023-03-23T09:04:37;38.97;;;19.27;;
64498;SDS011;51087;55.718;21.122;2023-03-23T09:07:03;29.75;;;16.38;;
64498;SDS011;51087;55.718;21.122;2023-03-23T09:09:29;33.25;;;18.23;;
64498;SDS011;51087;55.718;21.122;2023-03-23T09:11:54;29.90;;;15.93;;
64498;SDS011;51087;55.718;21.122;2023-03-23T09:14:20;39.83;;;21.05;;
64498;SDS011;51087;55.718;21.122;2023-03-23T09:16:45;27.88;;;15.35;;
64498;SDS011;51087;55.718;21.122;2023-03-23T09:19:11;32.05;;;18.10;;
64498;SDS011;51087;55.718;21.122;2023-03-23T09:21:37;38.63;;;20.38;;
64498;SDS011;51087;55.718;21.122;2023-03-23T09:24:03;42.47;;;20.67;;
64498;SDS011;51087;55.718;21.122;2023-03-23T09:26:29;31.38;;;16.50;;
64498;SDS011;51087;55.718;21.122;2023-03-23T09:28:55;29.60;;;15.25;;
64498;SDS011;51087;55.718;21.122;2023-03-23T09:31:21;25.33;;;14.40;;
64498;SDS011;51087;55.718;21.122;2023-03-23T09:33:47;25.52;;;14.50;;
64498;SDS011;51087;55.718;21.122;2023-03-23T09:36:17;32.22;;;15.95;;
64498;SDS011;51087;55.718;21.122;2023-03-23T09:38:43;38.15;;;19.63;;
64498;SDS011;51087;55.718;21.122;2023-03-23T09:41:19;36.78;;;18.60;;
64498;SDS011;51087;55.718;21.122;2023-03-23T09:44:14;35.63;;;18.83;;
64498;SDS011;51087;55.718;21.122;2023-03-23T09:46:50;30.05;;;16.05;;
64498;SDS011;51087;55.718;21.122;2023-03-23T09:49:32;22.10;;;11.73;;
64498;SDS011;51087;55.718;21.122;2023-03-23T09:52:02;30.70;;;17.95;;
64498;SDS011;51087;55.718;21.122;2023-03-23T09:54:38;26.73;;;15.63;;
64498;SDS011;51087;55.718;21.122;2023-03-23T09:57:11;34.08;;;18.13;;
64498;SDS011;51087;55.718;21.122;2023-03-23T09:59:52;37.45;;;19.83;;
64498;SDS011;51087;55.718;21.122;2023-03-23T10:07:38;19.90;;;12.85;;
64498;SDS011;51087;55.718;21.122;2023-03-23T10:10:03;32.20;;;17.17;;
64498;SDS011;51087;55.718;21.122;2023-03-23T10:12:43;30.38;;;16.73;;
64498;SDS011;51087;55.718;21.122;2023-03-23T10:15:27;35.55;;;18.95;;
64498;SDS011;51087;55.718;21.122;2023-03-23T10:21:16;37.00;;;18.98;;
64498;SDS011;51087;55.718;21.122;2023-03-23T10:28:59;31.83;;;17.67;;
64498;SDS011;51087;55.718;21.122;2023-03-23T10:31:46;37.95;;;19.98;;
64498;SDS011;51087;55.718;21.122;2023-03-23T10:34:32;35.75;;;21.08;;
64498;SDS011;51087;55.718;21.122;2023-03-23T10:39:32;38.22;;;20.98;;
64498;SDS011;51087;55.718;21.122;2023-03-23T10:42:07;39.50;;;18.85;;
64498;SDS011;51087;55.718;21.122;2023-03-23T10:44:34;32.92;;;18.13;;
64498;SDS011;51087;55.718;21.122;2023-03-23T10:47:04;27.13;;;14.88;;
64498;SDS011;51087;55.718;21.122;2023-03-23T10:54:39;47.40;;;21.25;;
64498;SDS011;51087;55.718;21.122;2023-03-23T10:57:21;32.13;;;16.25;;
64498;SDS011;51087;55.718;21.122;2023-03-23T11:02:44;37.17;;;21.02;;
64498;SDS011;51087;55.718;21.122;2023-03-23T11:05:25;32.85;;;18.92;;
64498;SDS011;51087;55.718;21.122;2023-03-23T11:10:25;27.65;;;15.27;;
64498;SDS011;51087;55.718;21.122;2023-03-23T11:12:58;31.17;;;16.65;;
64498;SDS011;51087;55.718;21.122;2023-03-23T11:18:04;23.38;;;13.55;;
64498;SDS011;51087;55.718;21.122;2023-03-23T11:20:36;29.05;;;14.88;;
64498;SDS011;51087;55.718;21.122;2023-03-23T11:23:39;18.65;;;10.88;;
64498;SDS011;51087;55.718;21.122;2023-03-23T11:29:03;28.98;;;17.30;;
64498;SDS011;51087;55.718;21.122;2023-03-23T11:31:38;16.17;;;8.38;;
64498;SDS011;51087;55.718;21.122;2023-03-23T11:34:11;29.20;;;13.88;;
64498;SDS011;51087;55.718;21.122;2023-03-23T11:39:34;26.05;;;11.88;;
64498;SDS011;51087;55.718;21.122;2023-03-23T11:42:20;21.70;;;12.45;;
64498;SDS011;51087;55.718;21.122;2023-03-23T11:44:54;30.75;;;13.90;;
64498;SDS011;51087;55.718;21.122;2023-03-23T11:58:44;25.48;;;15.52;;
64498;SDS011;51087;55.718;21.122;2023-03-23T12:01:20;30.52;;;17.02;;
64498;SDS011;51087;55.718;21.122;2023-03-23T12:03:58;29.40;;;15.13;;
64498;SDS011;51087;55.718;21.122;2023-03-23T12:10:33;38.35;;;18.17;;
64498;SDS011;51087;55.718;21.122;2023-03-23T12:15:22;28.48;;;17.02;;
64498;SDS011;51087;55.718;21.122;2023-03-23T12:18:06;34.65;;;18.48;;
64498;SDS011;51087;55.718;21.122;2023-03-23T12:42:11;28.17;;;16.65;;
64498;SDS011;51087;55.718;21.122;2023-03-23T12:44:48;29.50;;;16.55;;
64498;SDS011;51087;55.718;21.122;2023-03-23T12:50:26;56.53;;;23.33;;
64498;SDS011;51087;55.718;21.122;2023-03-23T12:53:13;30.33;;;18.65;;
64498;SDS011;51087;55.718;21.122;2023-03-23T12:55:47;24.00;;;12.90;;
64498;SDS011;51087;55.718;21.122;2023-03-23T12:58:18;36.72;;;19.92;;
64498;SDS011;51087;55.718;21.122;2023-03-23T13:03:26;29.63;;;15.43;;
64498;SDS011;51087;55.718;21.122;2023-03-23T13:06:12;34.10;;;20.48;;
64498;SDS011;51087;55.718;21.122;2023-03-23T13:08:46;33.65;;;14.82;;
64498;SDS011;51087;55.718;21.122;2023-03-23T13:11:17;32.37;;;17.10;;
64498;SDS011;51087;55.718;21.122;2023-03-23T13:13:54;37.25;;;19.15;;
64498;SDS011;51087;55.718;21.122;2023-03-23T13:19:11;23.38;;;13.23;;
64498;SDS011;51087;55.718;21.122;2023-03-23T13:21:58;27.65;;;14.48;;
64498;SDS011;51087;55.718;21.122;2023-03-23T13:24:26;16.10;;;8.75;;
64498;SDS011;51087;55.718;21.122;2023-03-23T13:26:55;28.98;;;16.02;;
64498;SDS011;51087;55.718;21.122;2023-03-23T13:29:23;40.88;;;19.02;;
64498;SDS011;51087;55.718;21.122;2023-03-23T13:31:50;31.55;;;18.63;;
64498;SDS011;51087;55.718;21.122;2023-03-23T13:36:54;26.52;;;15.07;;
64498;SDS011;51087;55.718;21.122;2023-03-23T13:39:23;17.83;;;11.27;;
64498;SDS011;51087;55.718;21.122;2023-03-23T13:41:59;27.80;;;13.45;;
64498;SDS011;51087;55.718;21.122;2023-03-23T13:44:53;27.00;;;15.48;;
64498;SDS011;51087;55.718;21.122;2023-03-23T13:52:36;34.28;;;16.25;;
64498;SDS011;51087;55.718;21.122;2023-03-23T14:13:29;19.20;;;10.38;;
64498;SDS011;51087;55.718;21.122;2023-03-23T14:16:03;24.00;;;12.50;;
64498;SDS011;51087;55.718;21.122;2023-03-23T14:18:38;30.13;;;13.38;;
64498;SDS011;51087;55.718;21.122;2023-03-23T14:21:06;26.98;;;15.25;;
64498;SDS011;51087;55.718;21.122;2023-03-23T14:23:38;23.10;;;13.52;;
64498;SDS011;51087;55.718;21.122;2023-03-23T14:26:09;22.38;;;11.07;;
64498;SDS011;51087;55.718;21.122;2023-03-23T14:28:42;22.95;;;10.45;;
64498;SDS011;51087;55.718;21.122;2023-03-23T14:31:14;23.90;;;11.68;;
64498;SDS011;51087;55.718;21.122;2023-03-23T14:33:43;19.90;;;12.80;;
64498;SDS011;51087;55.718;21.122;2023-03-23T14:36:09;23.73;;;13.23;;
64498;SDS011;51087;55.718;21.122;2023-03-23T14:38:35;21.70;;;8.85;;
64498;SDS011;51087;55.718;21.122;2023-03-23T14:41:04;20.42;;;11.77;;
64498;SDS011;51087;55.718;21.122;2023-03-23T14:43:30;19.35;;;9.85;;
64498;SDS011;51087;55.718;21.122;2023-03-23T14:45:59;29.67;;;15.13;;
64498;SDS011;51087;55.718;21.122;2023-03-23T14:48:27;14.18;;;9.45;;
64498;SDS011;51087;55.718;21.122;2023-03-23T14:50:58;24.35;;;13.63;;
64498;SDS011;51087;55.718;21.122;2023-03-23T14:56:09;12.93;;;8.23;;
64498;SDS011;51087;55.718;21.122;2023-03-23T14:58:37;17.65;;;8.70;;
64498;SDS011;51087;55.718;21.122;2023-03-23T15:01:07;24.00;;;10.43;;
64498;SDS011;51087;55.718;21.122;2023-03-23T15:03:42;27.33;;;14.73;;
64498;SDS011;51087;55.718;21.122;2023-03-23T15:06:17;27.60;;;14.38;;
64498;SDS011;51087;55.718;21.122;2023-03-23T15:08:46;18.77;;;11.52;;
64498;SDS011;51087;55.718;21.122;2023-03-23T15:13:43;21.55;;;11.52;;
64498;SDS011;51087;55.718;21.122;2023-03-23T15:16:13;16.02;;;6.13;;
64498;SDS011;51087;55.718;21.122;2023-03-23T15:18:45;14.35;;;6.75;;
64498;SDS011;51087;55.718;21.122;2023-03-23T15:21:20;11.77;;;6.72;;
64498;SDS011;51087;55.718;21.122;2023-03-23T15:23:49;9.82;;;5.43;;
64498;SDS011;51087;55.718;21.122;2023-03-23T15:26:25;18.60;;;8.55;;
64498;SDS011;51087;55.718;21.122;2023-03-23T15:32:03;7.38;;;4.25;;
64498;SDS011;51087;55.718;21.122;2023-03-23T15:34:33;7.40;;;5.10;;
64498;SDS011;51087;55.718;21.122;2023-03-23T15:37:05;24.27;;;12.35;;
64498;SDS011;51087;55.718;21.122;2023-03-23T15:39:40;11.77;;;7.03;;
64498;SDS011;51087;55.718;21.122;2023-03-23T15:42:06;18.98;;;10.40;;
64498;SDS011;51087;55.718;21.122;2023-03-23T15:44:44;11.40;;;6.15;;
64498;SDS011;51087;55.718;21.122;2023-03-23T15:47:20;9.75;;;4.15;;
64498;SDS011;51087;55.718;21.122;2023-03-23T15:49:46;13.85;;;4.68;;
64498;SDS011;51087;55.718;21.122;2023-03-23T15:52:24;17.33;;;6.93;;
64498;SDS011;51087;55.718;21.122;2023-03-23T15:54:50;14.10;;;8.35;;
64498;SDS011;51087;55.718;21.122;2023-03-23T15:57:15;13.57;;;5.97;;
64498;SDS011;51087;55.718;21.122;2023-03-23T15:59:41;8.63;;;5.40;;
64498;SDS011;51087;55.718;21.122;2023-03-23T16:02:08;12.75;;;7.15;;
64498;SDS011;51087;55.718;21.122;2023-03-23T16:04:40;10.95;;;6.20;;
64498;SDS011;51087;55.718;21.122;2023-03-23T16:07:07;8.27;;;5.18;;
64498;SDS011;51087;55.718;21.122;2023-03-23T16:09:32;8.55;;;4.65;;
64498;SDS011;51087;55.718;21.122;2023-03-23T16:11:58;19.77;;;9.73;;
64498;SDS011;51087;55.718;21.122;2023-03-23T16:14:23;17.30;;;8.25;;
64498;SDS011;51087;55.718;21.122;2023-03-23T16:16:50;39.03;;;19.60;;
64498;SDS011;51087;55.718;21.122;2023-03-23T16:19:16;9.57;;;5.53;;
64498;SDS011;51087;55.718;21.122;2023-03-23T16:21:44;13.13;;;5.97;;
64498;SDS011;51087;55.718;21.122;2023-03-23T16:24:09;21.63;;;13.10;;
64498;SDS011;51087;55.718;21.122;2023-03-23T16:26:35;9.60;;;5.40;;
64498;SDS011;51087;55.718;21.122;2023-03-23T16:29:01;11.55;;;5.97;;
64498;SDS011;51087;55.718;21.122;2023-03-23T16:31:33;15.95;;;9.40;;
64498;SDS011;51087;55.718;21.122;2023-03-23T16:33:58;17.35;;;9.52;;
64498;SDS011;51087;55.718;21.122;2023-03-23T16:36:24;9.85;;;4.88;;
64498;SDS011;51087;55.718;21.122;2023-03-23T16:38:49;9.63;;;6.43;;
64498;SDS011;51087;55.718;21.122;2023-03-23T16:41:15;35.15;;;17.60;;
64498;SDS011;51087;55.718;21.122;2023-03-23T16:43:41;14.00;;;7.47;;
64498;SDS011;51087;55.718;21.122;2023-03-23T16:46:06;14.85;;;8.73;;
64498;SDS011;51087;55.718;21.122;2023-03-23T16:48:34;18.77;;;9.68;;
64498;SDS011;51087;55.718;21.122;2023-03-23T16:51:01;10.90;;;6.75;;